Time;durP1;ratioP1;P1;durP2;ratioP2;P2;SDS_P1;SDS_P2;PMS_P1;PMS_P2;Temp;Humidity;BMP_temperature;BMP_pressure;BME280_temperature;BME280_humidity;BME280_pressure;Samples;Min_cycle;Max_cycle;Signal;HPM_P1;HPM_P2
2023/10/19 00:01:11;;;;;;;;;;;;;;;;;;5053509;28;1894;-68
2023/10/19 00:03:36;;;;;;;;;;;;;;;;;;5053824;28;802;-68
2023/10/19 00:06:05;;;;;;;;;;;;;;;;;;5052866;28;1295;-68
2023/10/19 00:08:40;;;;;;;;;;;;;;;;;;5036308;28;1104;-68
2023/10/19 00:11:09;;;;;;;;;;;;;;;;;;5054266;28;857;-68
2023/10/19 00:13:38;;;;;;;;;;;;;;;;;;5053008;28;1395;-68
2023/10/19 00:16:23;;;;;;;;;;;;;;;;;;5053997;28;924;-69
2023/10/19 00:18:52;;;;;;;;;;;;;;;;;;5051026;28;1171;-69
2023/10/19 00:21:21;;;;;;;;;;;;;;;;;;5053177;28;786;-69
2023/10/19 00:23:51;;;;;;;;;;;;;;;;;;5050658;28;1463;-69
2023/10/19 00:26:20;;;;;;;;;;;;;;;;;;5051782;28;907;-69
2023/10/19 00:28:53;;;;;;;;;;;;;;;;;;5050719;28;1243;-69
2023/10/19 00:31:20;;;;;;;;;;;;;;;;;;5051702;28;1297;-69
2023/10/19 00:33:45;;;;;;;;;;;;;;;;;;5053099;28;884;-70
2023/10/19 00:36:15;;;;;;;;;;;;;;;;;;5053803;28;833;-69
2023/10/19 00:38:50;;;;;;;;;;;;;;;;;;5052865;28;1128;-69
2023/10/19 00:41:31;;;;;;;;;;;;;;;;;;5052217;28;1971;-69
2023/10/19 00:44:16;;;;;;;;;;;;;;;;;;5051607;28;1243;-69
2023/10/19 00:49:09;;;;;;;;;;;;;;;;;;5052338;28;738;-69
2023/10/19 00:52:02;;;;;;;;;;;;;;;;;;5052484;28;758;-69
2023/10/19 00:54:33;;;;;;;;;;;;;;;;;;5050660;28;1204;-69
2023/10/19 00:57:03;;;;;;;;;;;;;;;;;;5067166;28;1206;-69
2023/10/19 00:59:35;;;;;;;;;;;;;;;;;;5052503;28;1969;-69
2023/10/19 01:04:50;;;;;;;;;;;;;;;;;;5051988;28;635;-69
2023/10/19 01:07:22;;;;;;;;;;;;;;;;;;5049998;28;1203;-69
2023/10/19 01:09:47;;;;;;;;;;;;;;;;;;5050360;28;1209;-69
2023/10/19 01:15:05;;;;;;;;;;;;;;;;;;5051177;28;795;-69
2023/10/19 01:17:33;;;;;;;;;;;;;;;;;;5052025;28;968;-68
2023/10/19 01:19:58;;;;;;;;;;;;;;;;;;5051242;28;1910;-68
2023/10/19 01:22:26;;;;;;;;;;;;;;;;;;5034665;28;1195;-68
2023/10/19 01:24:53;;;;;;;;;;;;;;;;;;5049691;28;1203;-68
2023/10/19 01:27:18;;;;;;;;;;;;;;;;;;5034382;28;1518;-69
2023/10/19 01:29:43;;;;;;;;;;;;;;;;;;5050546;28;979;-68
2023/10/19 01:32:08;;;;;;;;;;;;;;;;;;5052297;28;848;-68
2023/10/19 01:34:37;;;;;;;;;;;;;;;;;;5034547;28;1167;-68
2023/10/19 01:37:05;;;;;;;;;;;;;;;;;;5050352;28;1318;-67
2023/10/19 01:39:31;;;;;;;;;;;;;;;;;;5048347;28;1956;-68
2023/10/19 01:41:57;;;;;;;;;;;;;;;;;;5056758;28;1168;-68
2023/10/19 01:44:24;;;;;;;;;;;;;;;;;;5069539;28;1222;-68
2023/10/19 01:46:50;;;;;;;;;;;;;;;;;;5053501;28;1344;-68
2023/10/19 01:49:25;;;;;;;;;;;;;;;;;;5071378;28;896;-68
2023/10/19 01:51:51;;;;;;;;;;;;;;;;;;5086126;28;1709;-68
2023/10/19 01:54:18;;;;;;;;;;;;;;;;;;5071068;28;845;-68
2023/10/19 01:56:43;;;;;;;;;;;;;;;;;;5070669;28;869;-68
2023/10/19 01:59:09;;;;;;;;;;;;;;;;;;5069652;28;1902;-68
2023/10/19 02:01:36;;;;;;;;;;;;;;;;;;5069591;28;1118;-68
2023/10/19 02:04:03;;;;;;;;;;;;;;;;;;5069370;28;1353;-68
2023/10/19 02:06:40;;;;;;;;;;;;;;;;;;5071685;28;966;-67
2023/10/19 02:11:58;;;;;;;;;;;;;;;;;;5071380;28;699;-68
2023/10/19 02:14:25;;;;;;;;;;;;;;;;;;5071817;28;817;-68
2023/10/19 02:16:52;;;;;;;;;;;;;;;;;;5069493;28;1231;-68
2023/10/19 02:19:19;;;;;;;;;;;;;;;;;;5070800;28;1906;-68
2023/10/19 02:21:47;;;;;;;;;;;;;;;;;;5072061;28;956;-68
2023/10/19 02:24:14;;;;;;;;;;;;;;;;;;5072809;28;900;-67
2023/10/19 02:26:40;;;;;;;;;;;;;;;;;;5072286;28;892;-68
2023/10/19 02:29:07;;;;;;;;;;;;;;;;;;5072296;28;888;-68
2023/10/19 02:31:33;;;;;;;;;;;;;;;;;;5072309;28;837;-68
2023/10/19 02:33:59;;;;;;;;;;;;;;;;;;5071814;28;840;-69
2023/10/19 02:36:30;;;;;;;;;;;;;;;;;;5071494;28;817;-69
2023/10/19 02:39:00;;;;;;;;;;;;;;;;;;5071333;28;816;-67
2023/10/19 02:41:26;;;;;;;;;;;;;;;;;;5053300;28;1381;-67
2023/10/19 02:44:01;;;;;;;;;;;;;;;;;;5071151;28;872;-67
2023/10/19 02:46:27;;;;;;;;;;;;;;;;;;5069899;28;1562;-68
2023/10/19 02:48:53;;;;;;;;;;;;;;;;;;5071200;28;825;-67
2023/10/19 02:51:19;;;;;;;;;;;;;;;;;;5071195;28;812;-68
2023/10/19 02:53:44;;;;;;;;;;;;;;;;;;5070709;28;891;-68
2023/10/19 02:56:16;;;;;;;;;;;;;;;;;;5071433;28;899;-68
2023/10/19 02:58:42;;;;;;;;;;;;;;;;;;5071018;28;845;-68
2023/10/19 03:01:17;;;;;;;;;;;;;;;;;;5071000;28;1961;-68
2023/10/19 03:03:43;;;;;;;;;;;;;;;;;;5069859;28;1317;-68
2023/10/19 03:06:09;;;;;;;;;;;;;;;;;;5071108;28;917;-69
2023/10/19 03:08:35;;;;;;;;;;;;;;;;;;5071680;28;871;-69
2023/10/19 03:11:13;;;;;;;;;;;;;;;;;;5071361;28;830;-70
2023/10/19 03:13:38;;;;;;;;;;;;;;;;;;5071728;28;927;-69
2023/10/19 03:16:07;;;;;;;;;;;;;;;;;;5071550;28;954;-69
2023/10/19 03:18:33;;;;;;;;;;;;;;;;;;5072042;28;888;-69
2023/10/19 03:20:58;;;;;;;;;;;;;;;;;;5070647;28;1910;-69
2023/10/19 03:23:23;;;;;;;;;;;;;;;;;;5070195;28;1083;-69
2023/10/19 03:26:39;;;;;;;;;;;;;;;;;;5070022;28;1188;-69
2023/10/19 03:28:40;;;;;;;;;;;;;;;;;;5063508;28;1180;-69
2023/10/19 03:31:06;;;;;;;;;;;;;;;;;;5073871;28;817;-69
2023/10/19 03:33:31;;;;;;;;;;;;;;;;;;5074343;28;853;-69
2023/10/19 03:35:56;;;;;;;;;;;;;;;;;;5072720;28;825;-69
2023/10/19 03:38:22;;;;;;;;;;;;;;;;;;5073051;28;1309;-69
2023/10/19 03:40:59;;;;;;;;;;;;;;;;;;5073024;28;1898;-69
2023/10/19 03:43:27;;;;;;;;;;;;;;;;;;5074968;28;899;-69
2023/10/19 03:45:53;;;;;;;;;;;;;;;;;;5072506;28;1203;-69
2023/10/19 03:48:26;;;;;;;;;;;;;;;;;;5056339;28;1249;-69
2023/10/19 03:50:53;;;;;;;;;;;;;;;;;;5072725;28;1322;-69
2023/10/19 03:53:18;;;;;;;;;;;;;;;;;;5072959;28;1250;-69
2023/10/19 03:55:44;;;;;;;;;;;;;;;;;;5075415;28;793;-68
2023/10/19 03:58:11;;;;;;;;;;;;;;;;;;5073616;28;1270;-69
2023/10/19 04:00:37;;;;;;;;;;;;;;;;;;5072832;28;1898;-69
2023/10/19 04:03:02;;;;;;;;;;;;;;;;;;5062819;28;1167;-69
2023/10/19 04:05:28;;;;;;;;;;;;;;;;;;5054315;28;849;-69
2023/10/19 04:07:57;;;;;;;;;;;;;;;;;;5053195;28;1526;-69
2023/10/19 04:13:00;;;;;;;;;;;;;;;;;;5053094;28;718;-69
2023/10/19 04:15:26;;;;;;;;;;;;;;;;;;5052608;28;845;-69
2023/10/19 04:17:52;;;;;;;;;;;;;;;;;;5051787;28;825;-69
2023/10/19 04:22:47;;;;;;;;;;;;;;;;;;5053544;28;1038;-69
2023/10/19 04:25:13;;;;;;;;;;;;;;;;;;5052247;28;1179;-69
2023/10/19 04:27:41;;;;;;;;;;;;;;;;;;5053747;28;868;-69
2023/10/19 04:30:15;;;;;;;;;;;;;;;;;;5052103;28;1357;-69
2023/10/19 04:32:40;;;;;;;;;;;;;;;;;;5053432;28;872;-69
2023/10/19 04:35:09;;;;;;;;;;;;;;;;;;5053595;28;773;-69
2023/10/19 04:37:34;;;;;;;;;;;;;;;;;;5053565;28;947;-69
2023/10/19 04:40:00;;;;;;;;;;;;;;;;;;5053253;28;1967;-69
2023/10/19 04:42:27;;;;;;;;;;;;;;;;;;5053048;28;896;-70
2023/10/19 04:44:52;;;;;;;;;;;;;;;;;;5053423;28;1124;-69
2023/10/19 04:47:18;;;;;;;;;;;;;;;;;;5054228;28;919;-68
2023/10/19 04:49:43;;;;;;;;;;;;;;;;;;5053373;28;908;-69
2023/10/19 04:52:09;;;;;;;;;;;;;;;;;;5052701;28;825;-68
2023/10/19 04:54:34;;;;;;;;;;;;;;;;;;5052827;28;912;-68
2023/10/19 04:57:02;;;;;;;;;;;;;;;;;;5052425;28;976;-70
2023/10/19 04:59:28;;;;;;;;;;;;;;;;;;5052223;28;1965;-69
2023/10/19 05:01:53;;;;;;;;;;;;;;;;;;5053169;28;1225;-69
2023/10/19 05:04:19;;;;;;;;;;;;;;;;;;5053326;28;820;-69
2023/10/19 05:06:44;;;;;;;;;;;;;;;;;;5052881;28;907;-68
2023/10/19 05:09:09;;;;;;;;;;;;;;;;;;5052939;28;738;-68
2023/10/19 05:11:35;;;;;;;;;;;;;;;;;;5051825;28;1306;-69
2023/10/19 05:14:00;;;;;;;;;;;;;;;;;;5050231;28;1254;-69
2023/10/19 05:16:26;;;;;;;;;;;;;;;;;;5051771;28;849;-69
2023/10/19 05:18:51;;;;;;;;;;;;;;;;;;5052351;28;794;-68
2023/10/19 05:21:16;;;;;;;;;;;;;;;;;;5033978;28;1914;-68
2023/10/19 05:23:42;;;;;;;;;;;;;;;;;;5051705;28;874;-68
2023/10/19 05:26:07;;;;;;;;;;;;;;;;;;5052109;28;911;-68
2023/10/19 05:28:32;;;;;;;;;;;;;;;;;;5052385;28;778;-69
2023/10/19 05:30:59;;;;;;;;;;;;;;;;;;5050116;28;1171;-69
2023/10/19 05:33:25;;;;;;;;;;;;;;;;;;5051012;28;1274;-69
2023/10/19 05:35:51;;;;;;;;;;;;;;;;;;5050834;28;849;-69
2023/10/19 05:38:16;;;;;;;;;;;;;;;;;;5051298;28;1204;-69
2023/10/19 05:40:45;;;;;;;;;;;;;;;;;;5052633;28;1949;-69
2023/10/19 05:43:11;;;;;;;;;;;;;;;;;;5052831;28;856;-69
2023/10/19 05:45:36;;;;;;;;;;;;;;;;;;5052288;28;892;-69
2023/10/19 05:48:03;;;;;;;;;;;;;;;;;;5052414;28;801;-69
2023/10/19 05:50:29;;;;;;;;;;;;;;;;;;5050913;28;1092;-68
2023/10/19 05:52:54;;;;;;;;;;;;;;;;;;5049842;28;916;-69
2023/10/19 05:55:21;;;;;;;;;;;;;;;;;;5051869;28;1086;-69
2023/10/19 05:57:46;;;;;;;;;;;;;;;;;;5051042;28;861;-69
2023/10/19 06:00:15;;;;;;;;;;;;;;;;;;5051324;28;1901;-69
2023/10/19 06:02:44;;;;;;;;;;;;;;;;;;5050976;28;975;-69
2023/10/19 06:05:10;;;;;;;;;;;;;;;;;;5050052;28;1746;-69
2023/10/19 06:07:35;;;;;;;;;;;;;;;;;;5050122;28;1207;-69
2023/10/19 06:10:04;;;;;;;;;;;;;;;;;;5049787;28;1171;-69
2023/10/19 06:12:33;;;;;;;;;;;;;;;;;;5051111;28;937;-69
2023/10/19 06:14:58;;;;;;;;;;;;;;;;;;5051397;28;987;-69
2023/10/19 06:17:24;;;;;;;;;;;;;;;;;;5050411;28;1438;-69
2023/10/19 06:19:49;;;;;;;;;;;;;;;;;;5051286;28;1981;-69
2023/10/19 06:22:16;;;;;;;;;;;;;;;;;;5051885;28;1002;-69
2023/10/19 06:24:41;;;;;;;;;;;;;;;;;;5051099;28;943;-69
2023/10/19 06:27:06;;;;;;;;;;;;;;;;;;5051652;28;995;-69
2023/10/19 06:29:32;;;;;;;;;;;;;;;;;;5051663;28;931;-69
2023/10/19 06:31:57;;;;;;;;;;;;;;;;;;5050020;28;1187;-69
2023/10/19 06:34:23;;;;;;;;;;;;;;;;;;5033704;28;2010;-69
2023/10/19 06:36:49;;;;;;;;;;;;;;;;;;5033446;28;1353;-69
2023/10/19 06:39:14;;;;;;;;;;;;;;;;;;5033684;28;1901;-69
2023/10/19 06:41:39;;;;;;;;;;;;;;;;;;5049887;28;967;-69
2023/10/19 06:44:05;;;;;;;;;;;;;;;;;;5050156;28;1114;-69
2023/10/19 06:46:31;;;;;;;;;;;;;;;;;;5050058;28;884;-69
2023/10/19 06:49:00;;;;;;;;;;;;;;;;;;5050053;28;920;-69
2023/10/19 06:51:26;;;;;;;;;;;;;;;;;;5050089;28;1231;-69
2023/10/19 06:53:52;;;;;;;;;;;;;;;;;;5050245;28;1233;-69
2023/10/19 06:56:17;;;;;;;;;;;;;;;;;;5049637;28;1176;-69
2023/10/19 06:58:42;;;;;;;;;;;;;;;;;;5049016;28;1027;-69
2023/10/19 07:01:08;;;;;;;;;;;;;;;;;;5049601;28;1969;-69
2023/10/19 07:03:33;;;;;;;;;;;;;;;;;;5050447;28;803;-68
2023/10/19 07:05:59;;;;;;;;;;;;;;;;;;5053702;28;908;-68
2023/10/19 07:08:27;;;;;;;;;;;;;;;;;;5055032;28;950;-68
2023/10/19 07:10:55;;;;;;;;;;;;;;;;;;5053037;28;1092;-68
2023/10/19 07:13:21;;;;;;;;;;;;;;;;;;5053408;28;1074;-68
2023/10/19 07:15:48;;;;;;;;;;;;;;;;;;5054482;28;886;-68
2023/10/19 07:18:14;;;;;;;;;;;;;;;;;;5053410;28;1750;-67
2023/10/19 07:20:39;;;;;;;;;;;;;;;;;;5053146;28;1953;-67
2023/10/19 07:23:38;;;;;;;;;;;;;;;;;;5053137;28;1381;-68
2023/10/19 07:25:59;;;;;;;;;;;;;;;;;;5053514;28;1725;-68
2023/10/19 07:28:26;;;;;;;;;;;;;;;;;;5054734;28;877;-67
2023/10/19 07:30:52;;;;;;;;;;;;;;;;;;5055198;28;890;-67
2023/10/19 07:33:17;;;;;;;;;;;;;;;;;;5055093;28;821;-67
2023/10/19 07:35:45;;;;;;;;;;;;;;;;;;5054848;28;849;-67
2023/10/19 07:38:11;;;;;;;;;;;;;;;;;;5054094;28;1120;-67
2023/10/19 07:40:36;;;;;;;;;;;;;;;;;;5054378;28;1878;-67
2023/10/19 07:43:03;;;;;;;;;;;;;;;;;;5053326;28;829;-67
2023/10/19 07:45:29;;;;;;;;;;;;;;;;;;5054350;28;856;-67
2023/10/19 07:47:56;;;;;;;;;;;;;;;;;;5070376;28;1191;-67
2023/10/19 07:50:22;;;;;;;;;;;;;;;;;;5036360;28;1522;-68
2023/10/19 07:52:49;;;;;;;;;;;;;;;;;;5054415;28;829;-67
2023/10/19 07:55:15;;;;;;;;;;;;;;;;;;5054329;28;876;-68
2023/10/19 07:57:41;;;;;;;;;;;;;;;;;;5053304;28;1101;-68
2023/10/19 08:00:08;;;;;;;;;;;;;;;;;;5036682;28;1955;-68
2023/10/19 08:02:34;;;;;;;;;;;;;;;;;;5053975;28;1228;-67
2023/10/19 08:05:03;;;;;;;;;;;;;;;;;;5052532;28;1696;-68
2023/10/19 08:07:28;;;;;;;;;;;;;;;;;;5052672;28;1502;-68
2023/10/19 08:09:54;;;;;;;;;;;;;;;;;;5054467;28;849;-68
2023/10/19 08:12:20;;;;;;;;;;;;;;;;;;5053380;28;1436;-67
2023/10/19 08:14:46;;;;;;;;;;;;;;;;;;5052568;28;1200;-68
2023/10/19 08:17:12;;;;;;;;;;;;;;;;;;5052894;28;841;-68
2023/10/19 08:19:38;;;;;;;;;;;;;;;;;;5054392;28;1906;-68
2023/10/19 08:22:04;;;;;;;;;;;;;;;;;;5052022;28;1382;-67
2023/10/19 08:24:30;;;;;;;;;;;;;;;;;;5053880;28;940;-67
2023/10/19 08:26:56;;;;;;;;;;;;;;;;;;5053947;28;1044;-69
2023/10/19 08:29:21;;;;;;;;;;;;;;;;;;5053020;28;842;-69
2023/10/19 08:31:46;;;;;;;;;;;;;;;;;;5053347;28;845;-69
2023/10/19 08:34:12;;;;;;;;;;;;;;;;;;5053891;28;872;-69
2023/10/19 08:36:37;;;;;;;;;;;;;;;;;;5035757;28;1252;-69
2023/10/19 08:39:07;;;;;;;;;;;;;;;;;;5051568;28;1358;-69
2023/10/19 08:41:37;;;;;;;;;;;;;;;;;;5052292;28;1965;-69
2023/10/19 08:44:03;;;;;;;;;;;;;;;;;;5051711;28;935;-69
2023/10/19 08:46:28;;;;;;;;;;;;;;;;;;5052938;28;853;-68
2023/10/19 08:48:56;;;;;;;;;;;;;;;;;;5052077;28;1346;-69
2023/10/19 08:51:21;;;;;;;;;;;;;;;;;;5051963;28;1264;-69
2023/10/19 08:53:48;;;;;;;;;;;;;;;;;;5052456;28;912;-68
2023/10/19 08:56:16;;;;;;;;;;;;;;;;;;5051628;28;1394;-69
2023/10/19 08:58:41;;;;;;;;;;;;;;;;;;5052912;28;877;-68
2023/10/19 09:01:06;;;;;;;;;;;;;;;;;;5052372;28;1889;-68
2023/10/19 09:03:32;;;;;;;;;;;;;;;;;;5052673;28;960;-68
2023/10/19 09:06:00;;;;;;;;;;;;;;;;;;5052898;28;947;-68
2023/10/19 09:08:38;;;;;;;;;;;;;;;;;;5051859;28;1131;-69
2023/10/19 09:11:06;;;;;;;;;;;;;;;;;;5035942;28;1251;-68
2023/10/19 09:13:43;;;;;;;;;;;;;;;;;;5052938;28;805;-68
2023/10/19 09:16:09;;;;;;;;;;;;;;;;;;5051339;28;1275;-68
2023/10/19 09:18:35;;;;;;;;;;;;;;;;;;5053223;28;829;-68
2023/10/19 09:21:07;;;;;;;;;;;;;;;;;;5053017;28;1972;-69
2023/10/19 09:23:32;;;;;;;;;;;;;;;;;;5053967;28;849;-67
2023/10/19 09:26:00;;;;;;;;;;;;;;;;;;5035251;28;1529;-67
2023/10/19 09:28:25;;;;;;;;;;;;;;;;;;5052853;28;923;-67
2023/10/19 09:30:51;;;;;;;;;;;;;;;;;;5052062;28;841;-68
2023/10/19 09:33:17;;;;;;;;;;;;;;;;;;5053111;28;884;-67
2023/10/19 09:35:51;;;;;;;;;;;;;;;;;;5051494;28;1183;-68
2023/10/19 09:38:21;;;;;;;;;;;;;;;;;;5053141;28;782;-68
2023/10/19 09:40:47;;;;;;;;;;;;;;;;;;5035374;28;1917;-67
2023/10/19 09:43:16;;;;;;;;;;;;;;;;;;5053515;28;836;-69
2023/10/19 09:45:46;;;;;;;;;;;;;;;;;;5051477;28;1208;-69
2023/10/19 09:48:16;;;;;;;;;;;;;;;;;;5052384;28;869;-68
2023/10/19 09:50:42;;;;;;;;;;;;;;;;;;5057216;28;1195;-68
2023/10/19 09:53:07;;;;;;;;;;;;;;;;;;5053733;28;1191;-68
2023/10/19 09:55:35;;;;;;;;;;;;;;;;;;5070182;28;939;-69
2023/10/19 09:58:09;;;;;;;;;;;;;;;;;;5072108;28;990;-68
2023/10/19 10:00:35;;;;;;;;;;;;;;;;;;5070497;28;1965;-68
2023/10/19 10:03:02;;;;;;;;;;;;;;;;;;5071603;28;1171;-68
2023/10/19 10:05:43;;;;;;;;;;;;;;;;;;5071733;28;848;-68
2023/10/19 10:08:17;;;;;;;;;;;;;;;;;;5070319;28;1147;-68
2023/10/19 10:10:46;;;;;;;;;;;;;;;;;;5071227;28;987;-69
2023/10/19 10:13:24;;;;;;;;;;;;;;;;;;5070849;28;848;-68
2023/10/19 10:15:52;;;;;;;;;;;;;;;;;;5071001;28;773;-67
2023/10/19 10:18:17;;;;;;;;;;;;;;;;;;5071729;28;1172;-67
2023/10/19 10:20:43;;;;;;;;;;;;;;;;;;5071441;28;1906;-68
2023/10/19 10:23:31;;;;;;;;;;;;;;;;;;5070323;28;848;-67
2023/10/19 10:25:58;;;;;;;;;;;;;;;;;;5071396;28;875;-68
2023/10/19 10:28:24;;;;;;;;;;;;;;;;;;5053491;28;1373;-68
2023/10/19 10:31:08;;;;;;;;;;;;;;;;;;5070840;28;852;-68
2023/10/19 10:33:37;;;;;;;;;;;;;;;;;;5052790;28;1337;-68
2023/10/19 10:36:05;;;;;;;;;;;;;;;;;;5071205;28;907;-68
2023/10/19 10:38:33;;;;;;;;;;;;;;;;;;5071338;28;895;-68
2023/10/19 10:40:58;;;;;;;;;;;;;;;;;;5070893;28;1894;-68
2023/10/19 10:43:23;;;;;;;;;;;;;;;;;;5070343;28;1346;-68
2023/10/19 10:45:48;;;;;;;;;;;;;;;;;;5069570;28;1003;-68
2023/10/19 10:48:15;;;;;;;;;;;;;;;;;;5069925;28;1243;-68
2023/10/19 10:50:41;;;;;;;;;;;;;;;;;;5071471;28;765;-68
2023/10/19 10:53:07;;;;;;;;;;;;;;;;;;5070542;28;916;-68
2023/10/19 10:55:32;;;;;;;;;;;;;;;;;;5071324;28;994;-68
2023/10/19 10:57:58;;;;;;;;;;;;;;;;;;5069966;28;872;-68
2023/10/19 11:00:25;;;;;;;;;;;;;;;;;;5070264;28;1959;-69
2023/10/19 11:03:01;;;;;;;;;;;;;;;;;;5070466;28;1085;-69
2023/10/19 11:05:26;;;;;;;;;;;;;;;;;;5069795;28;1197;-69
2023/10/19 11:08:09;;;;;;;;;;;;;;;;;;5069549;28;1259;-68
2023/10/19 11:10:36;;;;;;;;;;;;;;;;;;5070455;28;1224;-68
2023/10/19 11:13:08;;;;;;;;;;;;;;;;;;5070716;28;825;-68
2023/10/19 11:15:34;;;;;;;;;;;;;;;;;;5072428;28;868;-69
2023/10/19 11:18:01;;;;;;;;;;;;;;;;;;5071719;28;825;-68
2023/10/19 11:20:27;;;;;;;;;;;;;;;;;;5072253;28;1906;-69
2023/10/19 11:22:55;;;;;;;;;;;;;;;;;;5070137;28;1341;-68
2023/10/19 11:25:22;;;;;;;;;;;;;;;;;;5054683;28;1187;-69
2023/10/19 11:27:47;;;;;;;;;;;;;;;;;;5070891;28;860;-69
2023/10/19 11:30:13;;;;;;;;;;;;;;;;;;5069999;28;1260;-69
2023/10/19 11:32:38;;;;;;;;;;;;;;;;;;5070812;28;837;-68
2023/10/19 11:35:04;;;;;;;;;;;;;;;;;;5070605;28;805;-68
2023/10/19 11:37:29;;;;;;;;;;;;;;;;;;5071215;28;861;-68
2023/10/19 11:39:55;;;;;;;;;;;;;;;;;;5070714;28;1902;-68
2023/10/19 11:42:20;;;;;;;;;;;;;;;;;;5069602;28;1402;-68
2023/10/19 11:44:46;;;;;;;;;;;;;;;;;;5070648;28;825;-68
2023/10/19 11:47:11;;;;;;;;;;;;;;;;;;5069070;28;825;-68
2023/10/19 11:49:37;;;;;;;;;;;;;;;;;;5069212;28;1266;-69
2023/10/19 11:52:07;;;;;;;;;;;;;;;;;;5071934;28;1415;-69
2023/10/19 11:54:32;;;;;;;;;;;;;;;;;;5074391;28;912;-69
2023/10/19 11:56:58;;;;;;;;;;;;;;;;;;5055483;28;860;-69
2023/10/19 11:59:23;;;;;;;;;;;;;;;;;;5074219;28;1882;-69
2023/10/19 12:01:48;;;;;;;;;;;;;;;;;;5073351;28;1145;-69
2023/10/19 12:04:13;;;;;;;;;;;;;;;;;;5072436;28;1342;-69
2023/10/19 12:06:39;;;;;;;;;;;;;;;;;;5073505;28;921;-69
2023/10/19 12:09:14;;;;;;;;;;;;;;;;;;5073535;28;872;-69
2023/10/19 12:11:40;;;;;;;;;;;;;;;;;;5073904;28;880;-69
2023/10/19 12:14:09;;;;;;;;;;;;;;;;;;5072286;28;840;-69
2023/10/19 12:16:34;;;;;;;;;;;;;;;;;;5073667;28;927;-69
2023/10/19 12:18:59;;;;;;;;;;;;;;;;;;5072093;28;1433;-69
2023/10/19 12:21:27;;;;;;;;;;;;;;;;;;5072543;28;1910;-68
2023/10/19 12:23:55;;;;;;;;;;;;;;;;;;5072902;28;903;-68
2023/10/19 12:26:20;;;;;;;;;;;;;;;;;;5055586;28;1270;-68
2023/10/19 12:28:46;;;;;;;;;;;;;;;;;;5073381;28;911;-68
2023/10/19 12:31:12;;;;;;;;;;;;;;;;;;5072018;28;814;-68
2023/10/19 12:33:38;;;;;;;;;;;;;;;;;;5055421;28;833;-67
2023/10/19 12:36:22;;;;;;;;;;;;;;;;;;5071440;28;1357;-68
2023/10/19 12:38:49;;;;;;;;;;;;;;;;;;5073081;28;860;-69
2023/10/19 12:41:14;;;;;;;;;;;;;;;;;;5073515;28;1913;-69
2023/10/19 12:43:40;;;;;;;;;;;;;;;;;;5073164;28;924;-69
2023/10/19 12:46:08;;;;;;;;;;;;;;;;;;5072387;28;1207;-69
2023/10/19 12:48:37;;;;;;;;;;;;;;;;;;5072848;28;1180;-69
2023/10/19 12:51:03;;;;;;;;;;;;;;;;;;5055393;28;947;-68
2023/10/19 12:53:28;;;;;;;;;;;;;;;;;;5056669;28;1336;-68
2023/10/19 12:55:53;;;;;;;;;;;;;;;;;;5073479;28;1050;-68
2023/10/19 12:58:22;;;;;;;;;;;;;;;;;;5073897;28;935;-70
2023/10/19 13:00:48;;;;;;;;;;;;;;;;;;5073416;28;1906;-69
2023/10/19 13:03:14;;;;;;;;;;;;;;;;;;5072288;28;888;-69
2023/10/19 13:05:40;;;;;;;;;;;;;;;;;;5073684;28;927;-69
2023/10/19 13:08:06;;;;;;;;;;;;;;;;;;5072965;28;1029;-68
2023/10/19 13:10:32;;;;;;;;;;;;;;;;;;5073541;28;919;-68
2023/10/19 13:13:03;;;;;;;;;;;;;;;;;;5072472;28;860;-68
2023/10/19 13:15:30;;;;;;;;;;;;;;;;;;5072797;28;840;-69
2023/10/19 13:17:56;;;;;;;;;;;;;;;;;;5072686;28;825;-69
2023/10/19 13:20:23;;;;;;;;;;;;;;;;;;5072860;28;1971;-69
2023/10/19 13:22:48;;;;;;;;;;;;;;;;;;5070666;28;1316;-68
2023/10/19 13:25:16;;;;;;;;;;;;;;;;;;5056239;28;1151;-69
2023/10/19 13:27:42;;;;;;;;;;;;;;;;;;5052676;28;1091;-69
2023/10/19 13:30:10;;;;;;;;;;;;;;;;;;5063066;28;1191;-69
2023/10/19 13:32:35;;;;;;;;;;;;;;;;;;5065255;28;1238;-68
2023/10/19 13:35:01;;;;;;;;;;;;;;;;;;5072063;28;875;-68
2023/10/19 13:37:26;;;;;;;;;;;;;;;;;;5071194;28;1274;-69
2023/10/19 13:39:51;;;;;;;;;;;;;;;;;;5070257;28;1898;-68
2023/10/19 13:42:17;;;;;;;;;;;;;;;;;;5071112;28;1135;-68
2023/10/19 13:44:42;;;;;;;;;;;;;;;;;;5070287;28;1298;-68
2023/10/19 13:47:08;;;;;;;;;;;;;;;;;;5071540;28;797;-68
2023/10/19 13:49:35;;;;;;;;;;;;;;;;;;5071774;28;835;-68
2023/10/19 13:52:00;;;;;;;;;;;;;;;;;;5069992;28;904;-69
2023/10/19 13:54:26;;;;;;;;;;;;;;;;;;5054170;28;1686;-70
2023/10/19 13:56:51;;;;;;;;;;;;;;;;;;5070805;28;1234;-70
2023/10/19 13:59:16;;;;;;;;;;;;;;;;;;5070255;28;762;-69
2023/10/19 14:01:41;;;;;;;;;;;;;;;;;;5071784;28;1882;-69
2023/10/19 14:04:07;;;;;;;;;;;;;;;;;;5069786;28;845;-69
2023/10/19 14:06:32;;;;;;;;;;;;;;;;;;5070239;28;908;-69
2023/10/19 14:08:57;;;;;;;;;;;;;;;;;;5071293;28;876;-69
2023/10/19 14:11:23;;;;;;;;;;;;;;;;;;5070972;28;837;-69
2023/10/19 14:13:50;;;;;;;;;;;;;;;;;;5069479;28;1215;-69
2023/10/19 14:16:15;;;;;;;;;;;;;;;;;;5071450;28;853;-69
2023/10/19 14:18:43;;;;;;;;;;;;;;;;;;5070475;28;1216;-69
2023/10/19 14:21:16;;;;;;;;;;;;;;;;;;5069540;28;1971;-68
2023/10/19 14:23:42;;;;;;;;;;;;;;;;;;5072159;28;837;-67
2023/10/19 14:26:09;;;;;;;;;;;;;;;;;;5070749;28;849;-67
2023/10/19 14:28:35;;;;;;;;;;;;;;;;;;5071548;28;798;-68
2023/10/19 14:31:01;;;;;;;;;;;;;;;;;;5070954;28;847;-68
2023/10/19 14:33:26;;;;;;;;;;;;;;;;;;5071701;28;1010;-68
2023/10/19 14:35:51;;;;;;;;;;;;;;;;;;5071638;28;932;-67
2023/10/19 14:38:17;;;;;;;;;;;;;;;;;;5070162;28;869;-68
2023/10/19 14:40:44;;;;;;;;;;;;;;;;;;5070451;28;1968;-68
2023/10/19 14:43:10;;;;;;;;;;;;;;;;;;5071108;28;805;-68
2023/10/19 14:45:36;;;;;;;;;;;;;;;;;;5071805;28;1006;-68
2023/10/19 14:48:08;;;;;;;;;;;;;;;;;;5071814;28;861;-68
2023/10/19 14:50:34;;;;;;;;;;;;;;;;;;5072796;28;876;-68
2023/10/19 14:53:00;;;;;;;;;;;;;;;;;;5072388;28;888;-67
2023/10/19 14:55:26;;;;;;;;;;;;;;;;;;5073826;28;828;-68
2023/10/19 14:57:55;;;;;;;;;;;;;;;;;;5071690;28;853;-68
2023/10/19 15:00:22;;;;;;;;;;;;;;;;;;5072561;28;1895;-68
2023/10/19 15:02:51;;;;;;;;;;;;;;;;;;5071885;28;1306;-68
2023/10/19 15:05:17;;;;;;;;;;;;;;;;;;5071060;28;869;-67
2023/10/19 15:07:45;;;;;;;;;;;;;;;;;;5069945;28;1159;-68
2023/10/19 15:10:14;;;;;;;;;;;;;;;;;;5070399;28;865;-68
2023/10/19 15:12:39;;;;;;;;;;;;;;;;;;5069718;28;1321;-68
2023/10/19 15:15:05;;;;;;;;;;;;;;;;;;5071495;28;833;-67
2023/10/19 15:17:31;;;;;;;;;;;;;;;;;;5069974;28;1290;-68
2023/10/19 15:19:57;;;;;;;;;;;;;;;;;;5070853;28;1909;-68
2023/10/19 15:22:23;;;;;;;;;;;;;;;;;;5070471;28;1036;-68
2023/10/19 15:24:51;;;;;;;;;;;;;;;;;;5068559;28;1223;-69
2023/10/19 15:27:18;;;;;;;;;;;;;;;;;;5070049;28;1342;-69
2023/10/19 15:29:44;;;;;;;;;;;;;;;;;;5073528;28;1107;-68
2023/10/19 15:32:09;;;;;;;;;;;;;;;;;;5072587;28;1460;-69
2023/10/19 15:34:35;;;;;;;;;;;;;;;;;;5074656;28;904;-68
2023/10/19 15:37:01;;;;;;;;;;;;;;;;;;5061979;28;1314;-68
2023/10/19 15:39:27;;;;;;;;;;;;;;;;;;5056796;28;1097;-69
2023/10/19 15:41:52;;;;;;;;;;;;;;;;;;5073929;28;1909;-68
2023/10/19 15:44:17;;;;;;;;;;;;;;;;;;5063478;28;1136;-68
2023/10/19 15:46:44;;;;;;;;;;;;;;;;;;5051707;28;1552;-69
2023/10/19 15:49:09;;;;;;;;;;;;;;;;;;5051437;28;1184;-68
2023/10/19 15:51:36;;;;;;;;;;;;;;;;;;5053237;28;936;-68
2023/10/19 15:54:04;;;;;;;;;;;;;;;;;;5053456;28;876;-68
2023/10/19 15:56:30;;;;;;;;;;;;;;;;;;5054707;28;848;-68
2023/10/19 15:58:56;;;;;;;;;;;;;;;;;;5051700;28;1199;-68
2023/10/19 16:01:21;;;;;;;;;;;;;;;;;;5052708;28;2001;-69
2023/10/19 16:03:47;;;;;;;;;;;;;;;;;;5052924;28;935;-69
2023/10/19 16:06:12;;;;;;;;;;;;;;;;;;5053300;28;1066;-69
2023/10/19 16:08:37;;;;;;;;;;;;;;;;;;5054135;28;848;-68
2023/10/19 16:11:03;;;;;;;;;;;;;;;;;;5053330;28;833;-68
2023/10/19 16:13:28;;;;;;;;;;;;;;;;;;5053119;28;1113;-69
2023/10/19 16:15:53;;;;;;;;;;;;;;;;;;5053615;28;856;-68
2023/10/19 16:18:19;;;;;;;;;;;;;;;;;;5054059;28;896;-68
2023/10/19 16:20:44;;;;;;;;;;;;;;;;;;5052873;28;1910;-68
2023/10/19 16:23:11;;;;;;;;;;;;;;;;;;5054526;28;1042;-68
2023/10/19 16:25:36;;;;;;;;;;;;;;;;;;5037068;28;1239;-68
2023/10/19 16:28:01;;;;;;;;;;;;;;;;;;5054760;28;899;-70
2023/10/19 16:30:31;;;;;;;;;;;;;;;;;;5053407;28;1399;-70
2023/10/19 16:32:56;;;;;;;;;;;;;;;;;;5053562;28;920;-70
2023/10/19 16:35:22;;;;;;;;;;;;;;;;;;5055221;28;998;-69
2023/10/19 16:37:48;;;;;;;;;;;;;;;;;;5053554;28;869;-68
2023/10/19 16:40:14;;;;;;;;;;;;;;;;;;5052952;28;1902;-68
2023/10/19 16:42:39;;;;;;;;;;;;;;;;;;5053112;28;1333;-69
2023/10/19 16:45:06;;;;;;;;;;;;;;;;;;5052482;28;1466;-69
2023/10/19 16:47:31;;;;;;;;;;;;;;;;;;5054104;28;846;-69
2023/10/19 16:49:57;;;;;;;;;;;;;;;;;;5053870;28;1163;-69
2023/10/19 16:52:22;;;;;;;;;;;;;;;;;;5052860;28;1546;-69
2023/10/19 16:54:48;;;;;;;;;;;;;;;;;;5053794;28;983;-70
2023/10/19 16:57:13;;;;;;;;;;;;;;;;;;5053026;28;956;-70
2023/10/19 16:59:38;;;;;;;;;;;;;;;;;;5052576;28;1959;-70
2023/10/19 17:02:04;;;;;;;;;;;;;;;;;;5051115;28;1078;-70
2023/10/19 17:04:31;;;;;;;;;;;;;;;;;;5052954;28;848;-69
2023/10/19 17:06:56;;;;;;;;;;;;;;;;;;5052551;28;1069;-69
2023/10/19 17:09:22;;;;;;;;;;;;;;;;;;5050985;28;1290;-70
2023/10/19 17:11:48;;;;;;;;;;;;;;;;;;5052859;28;896;-69
2023/10/19 17:14:13;;;;;;;;;;;;;;;;;;5052441;28;821;-70
2023/10/19 17:16:38;;;;;;;;;;;;;;;;;;5053483;28;971;-70
2023/10/19 17:19:05;;;;;;;;;;;;;;;;;;5051019;28;1273;-69
2023/10/19 17:21:31;;;;;;;;;;;;;;;;;;5051115;28;1969;-69
2023/10/19 17:23:57;;;;;;;;;;;;;;;;;;5052359;28;825;-69
2023/10/19 17:26:23;;;;;;;;;;;;;;;;;;5050781;28;1161;-70
2023/10/19 17:28:50;;;;;;;;;;;;;;;;;;5052806;28;781;-70